sensor_id;sensor_type;location;lat;lon;timestamp;temperature;humidity
9949;DHT22;5013;51.840;8.276;2022-08-30T00:00:15;17.40;1.00
9949;DHT22;5013;51.840;8.276;2022-08-30T00:03:00;17.30;1.00
9949;DHT22;5013;51.840;8.276;2022-08-30T00:05:27;17.30;1.00
9949;DHT22;5013;51.840;8.276;2022-08-30T00:07:53;17.40;1.00
9949;DHT22;5013;51.840;8.276;2022-08-30T00:10:20;17.30;1.00
9949;DHT22;5013;51.840;8.276;2022-08-30T00:12:45;17.30;1.00
9949;DHT22;5013;51.840;8.276;2022-08-30T00:15:13;17.40;1.00
9949;DHT22;5013;51.840;8.276;2022-08-30T00:17:39;17.30;1.00
9949;DHT22;5013;51.840;8.276;2022-08-30T00:20:09;17.30;1.00
9949;DHT22;5013;51.840;8.276;2022-08-30T00:22:35;17.20;14.50
9949;DHT22;5013;51.840;8.276;2022-08-30T00:25:00;17.10;99.90
9949;DHT22;5013;51.840;8.276;2022-08-30T00:27:27;17.10;99.90
9949;DHT22;5013;51.840;8.276;2022-08-30T00:29:54;17.10;93.10
9949;DHT22;5013;51.840;8.276;2022-08-30T00:32:20;17.10;99.90
9949;DHT22;5013;51.840;8.276;2022-08-30T00:34:47;17.10;73.00
9949;DHT22;5013;51.840;8.276;2022-08-30T00:37:13;17.10;99.90
9949;DHT22;5013;51.840;8.276;2022-08-30T00:39:39;17.00;99.90
9949;DHT22;5013;51.840;8.276;2022-08-30T00:42:06;17.00;99.90
9949;DHT22;5013;51.840;8.276;2022-08-30T00:44:32;16.90;99.90
9949;DHT22;5013;51.840;8.276;2022-08-30T00:46:58;16.90;99.90
9949;DHT22;5013;51.840;8.276;2022-08-30T00:49:24;16.90;99.90
9949;DHT22;5013;51.840;8.276;2022-08-30T00:51:50;16.80;99.90
9949;DHT22;5013;51.840;8.276;2022-08-30T00:54:17;16.80;99.90
9949;DHT22;5013;51.840;8.276;2022-08-30T00:56:49;16.70;99.90
9949;DHT22;5013;51.840;8.276;2022-08-30T00:59:14;16.60;99.90
9949;DHT22;5013;51.840;8.276;2022-08-30T01:01:40;16.60;99.90
9949;DHT22;5013;51.840;8.276;2022-08-30T01:04:07;16.60;99.90
9949;DHT22;5013;51.840;8.276;2022-08-30T01:06:35;16.60;1.00
9949;DHT22;5013;51.840;8.276;2022-08-30T01:09:02;16.60;99.90
9949;DHT22;5013;51.840;8.276;2022-08-30T01:11:31;16.60;99.90
9949;DHT22;5013;51.840;8.276;2022-08-30T01:13:58;16.60;99.90
9949;DHT22;5013;51.840;8.276;2022-08-30T01:16:24;16.50;99.90
9949;DHT22;5013;51.840;8.276;2022-08-30T01:18:52;16.50;99.90
9949;DHT22;5013;51.840;8.276;2022-08-30T01:24:00;16.50;99.90
9949;DHT22;5013;51.840;8.276;2022-08-30T01:26:28;16.50;99.90
9949;DHT22;5013;51.840;8.276;2022-08-30T01:28:56;16.50;1.00
9949;DHT22;5013;51.840;8.276;2022-08-30T01:31:24;16.40;1.00
9949;DHT22;5013;51.840;8.276;2022-08-30T01:33:50;16.40;1.00
9949;DHT22;5013;51.840;8.276;2022-08-30T01:36:16;16.40;1.00
9949;DHT22;5013;51.840;8.276;2022-08-30T01:38:54;16.40;1.00
9949;DHT22;5013;51.840;8.276;2022-08-30T01:43:48;16.40;99.90
9949;DHT22;5013;51.840;8.276;2022-08-30T01:46:16;16.40;99.90
9949;DHT22;5013;51.840;8.276;2022-08-30T01:48:44;16.30;99.90
9949;DHT22;5013;51.840;8.276;2022-08-30T01:51:12;16.30;1.00
9949;DHT22;5013;51.840;8.276;2022-08-30T01:53:57;16.30;99.90
9949;DHT22;5013;51.840;8.276;2022-08-30T01:56:24;16.20;1.00
9949;DHT22;5013;51.840;8.276;2022-08-30T01:58:51;16.20;1.00
9949;DHT22;5013;51.840;8.276;2022-08-30T02:01:19;16.20;1.00
9949;DHT22;5013;51.840;8.276;2022-08-30T02:03:46;16.10;1.00
9949;DHT22;5013;51.840;8.276;2022-08-30T02:06:15;16.10;1.00
9949;DHT22;5013;51.840;8.276;2022-08-30T02:08:42;16.10;1.00
9949;DHT22;5013;51.840;8.276;2022-08-30T02:11:08;16.10;1.00
9949;DHT22;5013;51.840;8.276;2022-08-30T02:13:34;16.00;1.00
9949;DHT22;5013;51.840;8.276;2022-08-30T02:16:03;16.00;1.00
9949;DHT22;5013;51.840;8.276;2022-08-30T02:18:28;16.00;1.00
9949;DHT22;5013;51.840;8.276;2022-08-30T02:20:56;16.00;1.00
9949;DHT22;5013;51.840;8.276;2022-08-30T02:23:22;16.00;1.00
9949;DHT22;5013;51.840;8.276;2022-08-30T02:25:48;16.00;1.00
9949;DHT22;5013;51.840;8.276;2022-08-30T02:28:13;15.90;1.00
9949;DHT22;5013;51.840;8.276;2022-08-30T02:30:41;15.90;1.00
9949;DHT22;5013;51.840;8.276;2022-08-30T02:33:06;15.90;1.00
9949;DHT22;5013;51.840;8.276;2022-08-30T02:35:32;15.90;1.00
9949;DHT22;5013;51.840;8.276;2022-08-30T02:37:58;15.80;1.00
9949;DHT22;5013;51.840;8.276;2022-08-30T02:40:24;15.70;1.00
9949;DHT22;5013;51.840;8.276;2022-08-30T02:42:49;15.70;52.20
9949;DHT22;5013;51.840;8.276;2022-08-30T02:45:15;15.70;99.90
9949;DHT22;5013;51.840;8.276;2022-08-30T02:47:41;15.80;99.90
9949;DHT22;5013;51.840;8.276;2022-08-30T02:50:08;15.70;99.90
9949;DHT22;5013;51.840;8.276;2022-08-30T02:52:35;15.70;1.00
9949;DHT22;5013;51.840;8.276;2022-08-30T02:55:02;15.70;95.40
9949;DHT22;5013;51.840;8.276;2022-08-30T02:57:28;15.60;33.70
9949;DHT22;5013;51.840;8.276;2022-08-30T02:59:53;15.60;99.90
9949;DHT22;5013;51.840;8.276;2022-08-30T03:02:19;15.70;99.90
9949;DHT22;5013;51.840;8.276;2022-08-30T03:04:46;15.70;39.80
9949;DHT22;5013;51.840;8.276;2022-08-30T03:07:13;15.60;99.90
9949;DHT22;5013;51.840;8.276;2022-08-30T03:09:39;15.60;99.90
9949;DHT22;5013;51.840;8.276;2022-08-30T03:12:06;15.60;99.90
9949;DHT22;5013;51.840;8.276;2022-08-30T03:14:33;15.50;1.00
9949;DHT22;5013;51.840;8.276;2022-08-30T03:17:01;15.50;1.00
9949;DHT22;5013;51.840;8.276;2022-08-30T03:19:27;15.50;1.00
9949;DHT22;5013;51.840;8.276;2022-08-30T03:21:53;15.50;1.00
9949;DHT22;5013;51.840;8.276;2022-08-30T03:24:19;15.40;1.00
9949;DHT22;5013;51.840;8.276;2022-08-30T03:26:44;15.40;1.00
9949;DHT22;5013;51.840;8.276;2022-08-30T03:29:10;15.50;1.00
9949;DHT22;5013;51.840;8.276;2022-08-30T03:31:36;15.40;1.00
9949;DHT22;5013;51.840;8.276;2022-08-30T03:34:02;15.50;1.00
9949;DHT22;5013;51.840;8.276;2022-08-30T03:36:30;15.40;1.00
9949;DHT22;5013;51.840;8.276;2022-08-30T03:38:55;15.40;1.00
9949;DHT22;5013;51.840;8.276;2022-08-30T03:41:22;15.50;1.00
9949;DHT22;5013;51.840;8.276;2022-08-30T03:43:49;15.50;1.00
9949;DHT22;5013;51.840;8.276;2022-08-30T03:46:15;15.50;1.00
9949;DHT22;5013;51.840;8.276;2022-08-30T03:48:41;15.40;1.00
9949;DHT22;5013;51.840;8.276;2022-08-30T03:51:07;15.40;99.90
9949;DHT22;5013;51.840;8.276;2022-08-30T03:53:33;15.40;1.00
9949;DHT22;5013;51.840;8.276;2022-08-30T03:55:58;15.40;1.00
9949;DHT22;5013;51.840;8.276;2022-08-30T03:58:24;15.40;1.00
9949;DHT22;5013;51.840;8.276;2022-08-30T04:00:50;15.40;99.90
9949;DHT22;5013;51.840;8.276;2022-08-30T04:03:15;15.30;1.00
9949;DHT22;5013;51.840;8.276;2022-08-30T04:05:42;15.30;1.00
9949;DHT22;5013;51.840;8.276;2022-08-30T04:08:08;15.30;1.00
9949;DHT22;5013;51.840;8.276;2022-08-30T04:10:34;15.30;1.00
9949;DHT22;5013;51.840;8.276;2022-08-30T04:12:59;15.30;99.90
9949;DHT22;5013;51.840;8.276;2022-08-30T04:15:25;15.20;1.00
9949;DHT22;5013;51.840;8.276;2022-08-30T04:17:51;15.10;1.00
9949;DHT22;5013;51.840;8.276;2022-08-30T04:20:19;15.20;1.00
9949;DHT22;5013;51.840;8.276;2022-08-30T04:22:45;15.20;1.00
9949;DHT22;5013;51.840;8.276;2022-08-30T04:25:10;15.10;1.00
9949;DHT22;5013;51.840;8.276;2022-08-30T04:27:36;15.10;1.00
9949;DHT22;5013;51.840;8.276;2022-08-30T04:30:03;14.90;1.00
9949;DHT22;5013;51.840;8.276;2022-08-30T04:32:28;14.90;1.00
9949;DHT22;5013;51.840;8.276;2022-08-30T04:34:57;14.90;1.00
9949;DHT22;5013;51.840;8.276;2022-08-30T04:37:24;15.00;1.00
9949;DHT22;5013;51.840;8.276;2022-08-30T04:39:53;15.00;1.00
9949;DHT22;5013;51.840;8.276;2022-08-30T04:42:19;15.00;1.00
9949;DHT22;5013;51.840;8.276;2022-08-30T04:44:45;15.00;1.00
9949;DHT22;5013;51.840;8.276;2022-08-30T04:47:10;14.90;1.00
9949;DHT22;5013;51.840;8.276;2022-08-30T04:49:36;15.00;1.00
9949;DHT22;5013;51.840;8.276;2022-08-30T04:52:02;15.00;1.00
9949;DHT22;5013;51.840;8.276;2022-08-30T04:54:27;15.00;1.00
9949;DHT22;5013;51.840;8.276;2022-08-30T04:56:53;15.10;1.00
9949;DHT22;5013;51.840;8.276;2022-08-30T04:59:19;15.10;1.00
9949;DHT22;5013;51.840;8.276;2022-08-30T05:01:46;15.10;1.00
9949;DHT22;5013;51.840;8.276;2022-08-30T05:04:14;15.10;1.00
9949;DHT22;5013;51.840;8.276;2022-08-30T05:06:40;15.10;1.00
9949;DHT22;5013;51.840;8.276;2022-08-30T05:09:06;15.20;1.00
9949;DHT22;5013;51.840;8.276;2022-08-30T05:11:31;15.20;1.00
9949;DHT22;5013;51.840;8.276;2022-08-30T05:13:57;15.10;1.00
9949;DHT22;5013;51.840;8.276;2022-08-30T05:16:23;15.10;1.00
9949;DHT22;5013;51.840;8.276;2022-08-30T05:18:50;15.20;1.00
9949;DHT22;5013;51.840;8.276;2022-08-30T05:21:19;15.30;1.00
9949;DHT22;5013;51.840;8.276;2022-08-30T05:23:46;15.30;1.00
9949;DHT22;5013;51.840;8.276;2022-08-30T05:26:15;15.40;1.00
9949;DHT22;5013;51.840;8.276;2022-08-30T05:28:42;15.50;1.00
9949;DHT22;5013;51.840;8.276;2022-08-30T05:31:13;15.50;1.00
9949;DHT22;5013;51.840;8.276;2022-08-30T05:33:40;15.60;10.90
9949;DHT22;5013;51.840;8.276;2022-08-30T05:36:06;15.70;99.90
9949;DHT22;5013;51.840;8.276;2022-08-30T05:38:32;15.80;99.90
9949;DHT22;5013;51.840;8.276;2022-08-30T05:40:58;15.80;99.90
9949;DHT22;5013;51.840;8.276;2022-08-30T05:43:23;16.00;99.90
9949;DHT22;5013;51.840;8.276;2022-08-30T05:46:00;16.00;99.90
9949;DHT22;5013;51.840;8.276;2022-08-30T05:48:27;16.10;99.90
9949;DHT22;5013;51.840;8.276;2022-08-30T05:51:13;16.20;99.90
9949;DHT22;5013;51.840;8.276;2022-08-30T05:53:40;16.40;99.90
9949;DHT22;5013;51.840;8.276;2022-08-30T05:56:09;16.50;99.90
9949;DHT22;5013;51.840;8.276;2022-08-30T05:58:35;16.70;85.60
9949;DHT22;5013;51.840;8.276;2022-08-30T06:01:01;16.90;1.00
9949;DHT22;5013;51.840;8.276;2022-08-30T06:03:27;17.10;1.00
9949;DHT22;5013;51.840;8.276;2022-08-30T06:05:53;17.50;1.00
9949;DHT22;5013;51.840;8.276;2022-08-30T06:08:20;17.80;99.90
9949;DHT22;5013;51.840;8.276;2022-08-30T06:10:46;18.00;1.00
9949;DHT22;5013;51.840;8.276;2022-08-30T06:13:12;18.30;1.00
9949;DHT22;5013;51.840;8.276;2022-08-30T06:15:39;18.70;99.90
9949;DHT22;5013;51.840;8.276;2022-08-30T06:18:05;18.80;99.90
9949;DHT22;5013;51.840;8.276;2022-08-30T06:20:30;19.00;52.80
9949;DHT22;5013;51.840;8.276;2022-08-30T06:22:56;19.20;1.00
9949;DHT22;5013;51.840;8.276;2022-08-30T06:25:22;19.30;1.00
9949;DHT22;5013;51.840;8.276;2022-08-30T06:27:48;19.50;1.00
9949;DHT22;5013;51.840;8.276;2022-08-30T06:30:13;19.60;99.90
9949;DHT22;5013;51.840;8.276;2022-08-30T06:32:39;19.80;99.90
9949;DHT22;5013;51.840;8.276;2022-08-30T06:35:06;19.80;99.90
9949;DHT22;5013;51.840;8.276;2022-08-30T06:37:33;19.90;99.90
9949;DHT22;5013;51.840;8.276;2022-08-30T06:39:59;20.00;99.90
9949;DHT22;5013;51.840;8.276;2022-08-30T06:42:26;20.00;99.90
9949;DHT22;5013;51.840;8.276;2022-08-30T06:45:05;20.00;99.90
9949;DHT22;5013;51.840;8.276;2022-08-30T06:50:39;20.20;62.60
9949;DHT22;5013;51.840;8.276;2022-08-30T06:53:07;20.00;77.40
9949;DHT22;5013;51.840;8.276;2022-08-30T06:55:33;20.10;99.90
9949;DHT22;5013;51.840;8.276;2022-08-30T06:58:00;20.10;76.40
9949;DHT22;5013;51.840;8.276;2022-08-30T07:00:26;20.30;8.90
9949;DHT22;5013;51.840;8.276;2022-08-30T07:02:53;20.40;1.00
9949;DHT22;5013;51.840;8.276;2022-08-30T07:05:19;20.60;1.00
9949;DHT22;5013;51.840;8.276;2022-08-30T07:07:47;20.60;1.00
9949;DHT22;5013;51.840;8.276;2022-08-30T07:10:14;20.70;1.00
9949;DHT22;5013;51.840;8.276;2022-08-30T07:12:40;20.70;1.00
9949;DHT22;5013;51.840;8.276;2022-08-30T07:15:06;20.70;1.00
9949;DHT22;5013;51.840;8.276;2022-08-30T07:17:33;20.60;1.00
9949;DHT22;5013;51.840;8.276;2022-08-30T07:20:18;20.60;1.00
9949;DHT22;5013;51.840;8.276;2022-08-30T07:22:45;20.70;1.00
9949;DHT22;5013;51.840;8.276;2022-08-30T07:25:11;20.60;1.00
9949;DHT22;5013;51.840;8.276;2022-08-30T07:27:36;20.70;1.00
9949;DHT22;5013;51.840;8.276;2022-08-30T07:30:04;20.80;1.00
9949;DHT22;5013;51.840;8.276;2022-08-30T07:32:29;20.70;1.00
9949;DHT22;5013;51.840;8.276;2022-08-30T07:34:55;20.90;1.00
9949;DHT22;5013;51.840;8.276;2022-08-30T07:37:21;20.90;1.00
9949;DHT22;5013;51.840;8.276;2022-08-30T07:39:46;21.00;99.90
9949;DHT22;5013;51.840;8.276;2022-08-30T07:42:12;21.00;1.00
9949;DHT22;5013;51.840;8.276;2022-08-30T07:44:37;21.00;1.00
9949;DHT22;5013;51.840;8.276;2022-08-30T07:47:03;21.00;1.00
9949;DHT22;5013;51.840;8.276;2022-08-30T07:49:29;20.80;1.00
9949;DHT22;5013;51.840;8.276;2022-08-30T07:51:55;20.90;1.00
9949;DHT22;5013;51.840;8.276;2022-08-30T07:54:21;21.00;1.00
9949;DHT22;5013;51.840;8.276;2022-08-30T07:56:47;21.10;99.90
9949;DHT22;5013;51.840;8.276;2022-08-30T07:59:13;21.20;99.90
9949;DHT22;5013;51.840;8.276;2022-08-30T08:01:39;21.20;99.90
9949;DHT22;5013;51.840;8.276;2022-08-30T08:04:05;21.00;99.90
9949;DHT22;5013;51.840;8.276;2022-08-30T08:06:31;21.00;1.00
9949;DHT22;5013;51.840;8.276;2022-08-30T08:08:57;21.00;1.00
9949;DHT22;5013;51.840;8.276;2022-08-30T08:11:27;20.90;1.00
9949;DHT22;5013;51.840;8.276;2022-08-30T08:13:53;20.90;1.00
9949;DHT22;5013;51.840;8.276;2022-08-30T08:16:21;20.90;1.00
9949;DHT22;5013;51.840;8.276;2022-08-30T08:18:47;20.90;1.00
9949;DHT22;5013;51.840;8.276;2022-08-30T08:21:12;21.10;99.90
9949;DHT22;5013;51.840;8.276;2022-08-30T08:23:38;21.00;99.90
9949;DHT22;5013;51.840;8.276;2022-08-30T08:26:04;21.10;99.90
9949;DHT22;5013;51.840;8.276;2022-08-30T08:28:30;21.10;99.90
9949;DHT22;5013;51.840;8.276;2022-08-30T08:30:56;21.10;99.90
9949;DHT22;5013;51.840;8.276;2022-08-30T08:33:22;21.30;99.90
9949;DHT22;5013;51.840;8.276;2022-08-30T08:35:48;21.40;99.90
9949;DHT22;5013;51.840;8.276;2022-08-30T08:38:14;21.50;99.90
9949;DHT22;5013;51.840;8.276;2022-08-30T08:41:05;21.60;96.10
9949;DHT22;5013;51.840;8.276;2022-08-30T08:43:34;21.70;1.00
9949;DHT22;5013;51.840;8.276;2022-08-30T08:49:21;21.70;1.00
9949;DHT22;5013;51.840;8.276;2022-08-30T08:51:47;21.80;1.00
9949;DHT22;5013;51.840;8.276;2022-08-30T08:54:50;22.00;1.00
9949;DHT22;5013;51.840;8.276;2022-08-30T08:57:16;22.00;1.00
9949;DHT22;5013;51.840;8.276;2022-08-30T08:59:43;22.10;1.00
9949;DHT22;5013;51.840;8.276;2022-08-30T09:02:32;22.10;1.00
9949;DHT22;5013;51.840;8.276;2022-08-30T09:05:00;22.10;1.00
9949;DHT22;5013;51.840;8.276;2022-08-30T09:07:33;22.20;1.00
9949;DHT22;5013;51.840;8.276;2022-08-30T09:10:01;22.30;99.90
9949;DHT22;5013;51.840;8.276;2022-08-30T09:12:27;22.40;99.90
9949;DHT22;5013;51.840;8.276;2022-08-30T09:14:55;22.30;99.90
9949;DHT22;5013;51.840;8.276;2022-08-30T09:17:23;22.40;99.90
9949;DHT22;5013;51.840;8.276;2022-08-30T09:25:39;22.90;99.90
9949;DHT22;5013;51.840;8.276;2022-08-30T09:27:41;23.00;99.90
9949;DHT22;5013;51.840;8.276;2022-08-30T09:30:20;23.00;99.90
9949;DHT22;5013;51.840;8.276;2022-08-30T09:35:41;23.00;99.90
9949;DHT22;5013;51.840;8.276;2022-08-30T09:38:10;23.00;99.90
9949;DHT22;5013;51.840;8.276;2022-08-30T09:40:47;23.10;99.90
9949;DHT22;5013;51.840;8.276;2022-08-30T09:45:45;23.40;99.90
9949;DHT22;5013;51.840;8.276;2022-08-30T09:56:59;23.10;99.90
9949;DHT22;5013;51.840;8.276;2022-08-30T09:59:53;23.30;99.90
9949;DHT22;5013;51.840;8.276;2022-08-30T10:06:06;23.70;99.90
9949;DHT22;5013;51.840;8.276;2022-08-30T10:09:02;24.00;99.90
9949;DHT22;5013;51.840;8.276;2022-08-30T10:25:34;23.70;95.70
9949;DHT22;5013;51.840;8.276;2022-08-30T10:28:06;23.90;85.30
9949;DHT22;5013;51.840;8.276;2022-08-30T10:30:37;24.00;87.20
9949;DHT22;5013;51.840;8.276;2022-08-30T10:35:56;24.10;41.70
9949;DHT22;5013;51.840;8.276;2022-08-30T10:38:37;24.10;36.60
9949;DHT22;5013;51.840;8.276;2022-08-30T10:41:23;24.10;27.10
9949;DHT22;5013;51.840;8.276;2022-08-30T10:44:02;24.20;44.20
9949;DHT22;5013;51.840;8.276;2022-08-30T10:47:05;24.30;29.00
9949;DHT22;5013;51.840;8.276;2022-08-30T10:49:38;24.40;5.40
9949;DHT22;5013;51.840;8.276;2022-08-30T10:55:04;24.80;1.00
9949;DHT22;5013;51.840;8.276;2022-08-30T10:57:30;24.80;1.00
9949;DHT22;5013;51.840;8.276;2022-08-30T11:00:00;24.80;1.00
9949;DHT22;5013;51.840;8.276;2022-08-30T11:06:15;25.30;1.00
9949;DHT22;5013;51.840;8.276;2022-08-30T11:11:11;25.50;1.00
9949;DHT22;5013;51.840;8.276;2022-08-30T11:13:40;25.30;1.00
9949;DHT22;5013;51.840;8.276;2022-08-30T11:16:09;25.20;1.00
9949;DHT22;5013;51.840;8.276;2022-08-30T11:18:54;25.10;1.00
9949;DHT22;5013;51.840;8.276;2022-08-30T11:21:34;25.10;1.00
9949;DHT22;5013;51.840;8.276;2022-08-30T11:24:06;25.20;1.00
9949;DHT22;5013;51.840;8.276;2022-08-30T11:29:31;25.20;1.00
9949;DHT22;5013;51.840;8.276;2022-08-30T11:40:41;25.50;1.00
9949;DHT22;5013;51.840;8.276;2022-08-30T11:43:47;25.60;1.00
9949;DHT22;5013;51.840;8.276;2022-08-30T11:52:37;26.00;1.00
9949;DHT22;5013;51.840;8.276;2022-08-30T11:57:22;26.10;1.00
9949;DHT22;5013;51.840;8.276;2022-08-30T12:00:04;26.50;1.00
9949;DHT22;5013;51.840;8.276;2022-08-30T12:02:57;26.70;1.00
9949;DHT22;5013;51.840;8.276;2022-08-30T12:10:40;26.70;1.00
9949;DHT22;5013;51.840;8.276;2022-08-30T12:13:06;26.90;1.00
9949;DHT22;5013;51.840;8.276;2022-08-30T12:15:55;26.70;1.00
9949;DHT22;5013;51.840;8.276;2022-08-30T12:18:25;27.00;1.00
9949;DHT22;5013;51.840;8.276;2022-08-30T12:21:09;26.90;1.00
9949;DHT22;5013;51.840;8.276;2022-08-30T12:26:11;27.00;1.00
9949;DHT22;5013;51.840;8.276;2022-08-30T12:28:38;27.10;1.00
9949;DHT22;5013;51.840;8.276;2022-08-30T12:31:10;27.30;1.00
9949;DHT22;5013;51.840;8.276;2022-08-30T12:33:44;27.40;1.00
9949;DHT22;5013;51.840;8.276;2022-08-30T12:36:30;27.40;1.00
9949;DHT22;5013;51.840;8.276;2022-08-30T12:39:13;27.40;1.00
9949;DHT22;5013;51.840;8.276;2022-08-30T12:41:39;27.30;1.00
9949;DHT22;5013;51.840;8.276;2022-08-30T12:44:11;27.40;1.00
9949;DHT22;5013;51.840;8.276;2022-08-30T12:46:40;27.60;1.00
9949;DHT22;5013;51.840;8.276;2022-08-30T12:49:06;27.40;1.00
9949;DHT22;5013;51.840;8.276;2022-08-30T12:51:41;27.50;1.00
9949;DHT22;5013;51.840;8.276;2022-08-30T12:54:20;27.60;1.00
9949;DHT22;5013;51.840;8.276;2022-08-30T12:56:49;27.50;1.00
9949;DHT22;5013;51.840;8.276;2022-08-30T12:59:50;27.40;1.00
9949;DHT22;5013;51.840;8.276;2022-08-30T13:02:26;27.30;1.00
9949;DHT22;5013;51.840;8.276;2022-08-30T13:04:53;27.30;1.00
9949;DHT22;5013;51.840;8.276;2022-08-30T13:07:24;27.30;1.00
9949;DHT22;5013;51.840;8.276;2022-08-30T13:10:19;27.40;1.00
9949;DHT22;5013;51.840;8.276;2022-08-30T13:13:04;27.40;1.00
9949;DHT22;5013;51.840;8.276;2022-08-30T13:15:33;27.40;1.00
9949;DHT22;5013;51.840;8.276;2022-08-30T13:18:26;27.20;1.00
9949;DHT22;5013;51.840;8.276;2022-08-30T13:21:09;27.20;1.00
9949;DHT22;5013;51.840;8.276;2022-08-30T13:23:35;27.10;1.00
9949;DHT22;5013;51.840;8.276;2022-08-30T13:26:01;27.20;1.00
9949;DHT22;5013;51.840;8.276;2022-08-30T13:28:26;27.20;1.00
9949;DHT22;5013;51.840;8.276;2022-08-30T13:30:53;26.90;1.00
9949;DHT22;5013;51.840;8.276;2022-08-30T13:33:19;27.20;1.00
9949;DHT22;5013;51.840;8.276;2022-08-30T13:35:45;27.20;1.00
9949;DHT22;5013;51.840;8.276;2022-08-30T13:38:11;27.10;1.00
9949;DHT22;5013;51.840;8.276;2022-08-30T13:40:36;27.00;1.00
9949;DHT22;5013;51.840;8.276;2022-08-30T13:43:02;27.40;1.00
9949;DHT22;5013;51.840;8.276;2022-08-30T13:45:28;27.30;1.00
9949;DHT22;5013;51.840;8.276;2022-08-30T13:47:53;27.30;1.00
9949;DHT22;5013;51.840;8.276;2022-08-30T13:50:19;27.40;1.00
9949;DHT22;5013;51.840;8.276;2022-08-30T13:52:45;27.40;1.00
9949;DHT22;5013;51.840;8.276;2022-08-30T13:55:11;27.40;1.00
9949;DHT22;5013;51.840;8.276;2022-08-30T13:57:37;27.50;1.00
9949;DHT22;5013;51.840;8.276;2022-08-30T14:00:05;27.30;1.00
9949;DHT22;5013;51.840;8.276;2022-08-30T14:02:31;27.10;1.00
9949;DHT22;5013;51.840;8.276;2022-08-30T14:04:57;26.90;1.00
9949;DHT22;5013;51.840;8.276;2022-08-30T14:07:23;27.00;1.00
9949;DHT22;5013;51.840;8.276;2022-08-30T14:09:48;27.10;1.00
9949;DHT22;5013;51.840;8.276;2022-08-30T14:12:14;27.00;1.00
9949;DHT22;5013;51.840;8.276;2022-08-30T14:14:39;27.00;1.00
9949;DHT22;5013;51.840;8.276;2022-08-30T14:17:05;27.10;1.00
9949;DHT22;5013;51.840;8.276;2022-08-30T14:19:30;27.20;1.00
9949;DHT22;5013;51.840;8.276;2022-08-30T14:21:56;27.10;1.00
9949;DHT22;5013;51.840;8.276;2022-08-30T14:24:22;27.10;1.00
9949;DHT22;5013;51.840;8.276;2022-08-30T14:26:49;27.10;1.00
9949;DHT22;5013;51.840;8.276;2022-08-30T14:29:19;27.00;1.00
9949;DHT22;5013;51.840;8.276;2022-08-30T14:31:46;26.80;1.00
9949;DHT22;5013;51.840;8.276;2022-08-30T14:34:13;26.80;1.00
9949;DHT22;5013;51.840;8.276;2022-08-30T14:36:41;26.60;1.00
9949;DHT22;5013;51.840;8.276;2022-08-30T14:39:10;26.70;1.00
9949;DHT22;5013;51.840;8.276;2022-08-30T14:41:41;26.60;1.00
9949;DHT22;5013;51.840;8.276;2022-08-30T14:44:06;26.60;1.00
9949;DHT22;5013;51.840;8.276;2022-08-30T14:46:32;26.60;1.00
9949;DHT22;5013;51.840;8.276;2022-08-30T14:48:58;26.50;1.00
9949;DHT22;5013;51.840;8.276;2022-08-30T14:51:23;26.30;1.00
9949;DHT22;5013;51.840;8.276;2022-08-30T14:53:53;26.10;1.00
9949;DHT22;5013;51.840;8.276;2022-08-30T14:56:20;26.20;1.00
9949;DHT22;5013;51.840;8.276;2022-08-30T14:58:48;26.10;1.00
9949;DHT22;5013;51.840;8.276;2022-08-30T15:01:14;26.00;1.00
9949;DHT22;5013;51.840;8.276;2022-08-30T15:03:40;26.00;1.00
9949;DHT22;5013;51.840;8.276;2022-08-30T15:06:06;26.10;1.00
9949;DHT22;5013;51.840;8.276;2022-08-30T15:08:33;26.10;1.00
9949;DHT22;5013;51.840;8.276;2022-08-30T15:10:59;26.20;1.00
9949;DHT22;5013;51.840;8.276;2022-08-30T15:13:26;26.20;1.00
9949;DHT22;5013;51.840;8.276;2022-08-30T15:15:52;26.20;1.00
9949;DHT22;5013;51.840;8.276;2022-08-30T15:18:18;26.00;1.00
9949;DHT22;5013;51.840;8.276;2022-08-30T15:20:48;26.00;1.00
9949;DHT22;5013;51.840;8.276;2022-08-30T15:23:15;26.00;1.00
9949;DHT22;5013;51.840;8.276;2022-08-30T15:25:41;26.00;1.00
9949;DHT22;5013;51.840;8.276;2022-08-30T15:28:06;26.10;1.00
9949;DHT22;5013;51.840;8.276;2022-08-30T15:30:32;26.00;1.00
9949;DHT22;5013;51.840;8.276;2022-08-30T15:32:58;25.90;1.00
9949;DHT22;5013;51.840;8.276;2022-08-30T15:35:23;25.80;1.00
9949;DHT22;5013;51.840;8.276;2022-08-30T15:37:49;25.70;1.00
9949;DHT22;5013;51.840;8.276;2022-08-30T15:40:14;25.60;1.00
9949;DHT22;5013;51.840;8.276;2022-08-30T15:42:40;25.50;1.00
9949;DHT22;5013;51.840;8.276;2022-08-30T15:45:06;25.40;1.00
9949;DHT22;5013;51.840;8.276;2022-08-30T15:47:32;25.30;1.00
9949;DHT22;5013;51.840;8.276;2022-08-30T15:50:00;25.20;1.00
9949;DHT22;5013;51.840;8.276;2022-08-30T15:52:28;25.20;1.00
9949;DHT22;5013;51.840;8.276;2022-08-30T15:54:55;25.30;1.00
9949;DHT22;5013;51.840;8.276;2022-08-30T15:57:21;25.30;1.00
9949;DHT22;5013;51.840;8.276;2022-08-30T15:59:47;25.30;1.00
9949;DHT22;5013;51.840;8.276;2022-08-30T16:02:12;25.10;1.00
9949;DHT22;5013;51.840;8.276;2022-08-30T16:04:38;25.20;1.00
9949;DHT22;5013;51.840;8.276;2022-08-30T16:07:05;25.30;1.00
9949;DHT22;5013;51.840;8.276;2022-08-30T16:09:32;25.20;1.00
9949;DHT22;5013;51.840;8.276;2022-08-30T16:11:58;25.20;1.00
9949;DHT22;5013;51.840;8.276;2022-08-30T16:14:24;25.10;1.00
9949;DHT22;5013;51.840;8.276;2022-08-30T16:17:21;25.20;1.00
9949;DHT22;5013;51.840;8.276;2022-08-30T16:19:48;25.10;1.00
9949;DHT22;5013;51.840;8.276;2022-08-30T16:22:14;24.90;1.00
9949;DHT22;5013;51.840;8.276;2022-08-30T16:24:40;24.90;1.00
9949;DHT22;5013;51.840;8.276;2022-08-30T16:27:06;25.00;1.00
9949;DHT22;5013;51.840;8.276;2022-08-30T16:29:32;25.00;1.00
9949;DHT22;5013;51.840;8.276;2022-08-30T16:31:58;25.00;1.00
9949;DHT22;5013;51.840;8.276;2022-08-30T16:34:23;24.90;1.00
9949;DHT22;5013;51.840;8.276;2022-08-30T16:36:49;24.90;1.00
9949;DHT22;5013;51.840;8.276;2022-08-30T16:39:15;24.90;1.00
9949;DHT22;5013;51.840;8.276;2022-08-30T16:41:42;24.80;1.00
9949;DHT22;5013;51.840;8.276;2022-08-30T16:44:08;24.80;1.00
9949;DHT22;5013;51.840;8.276;2022-08-30T16:46:34;24.80;1.00
9949;DHT22;5013;51.840;8.276;2022-08-30T16:49:00;24.90;1.00
9949;DHT22;5013;51.840;8.276;2022-08-30T16:51:28;24.80;1.00
9949;DHT22;5013;51.840;8.276;2022-08-30T16:53:55;24.80;1.00
9949;DHT22;5013;51.840;8.276;2022-08-30T16:56:23;24.80;1.00
9949;DHT22;5013;51.840;8.276;2022-08-30T16:58:49;24.80;1.00
9949;DHT22;5013;51.840;8.276;2022-08-30T17:01:18;24.70;1.00
9949;DHT22;5013;51.840;8.276;2022-08-30T17:03:44;24.70;1.00
9949;DHT22;5013;51.840;8.276;2022-08-30T17:06:10;24.70;1.00
9949;DHT22;5013;51.840;8.276;2022-08-30T17:08:36;24.60;1.00
9949;DHT22;5013;51.840;8.276;2022-08-30T17:11:02;24.50;1.00
9949;DHT22;5013;51.840;8.276;2022-08-30T17:13:28;24.50;1.00
9949;DHT22;5013;51.840;8.276;2022-08-30T17:15:53;24.30;1.00
9949;DHT22;5013;51.840;8.276;2022-08-30T17:18:20;24.20;1.00
9949;DHT22;5013;51.840;8.276;2022-08-30T17:20:46;24.10;1.00
9949;DHT22;5013;51.840;8.276;2022-08-30T17:23:12;24.00;1.00
9949;DHT22;5013;51.840;8.276;2022-08-30T17:25:38;23.90;1.00
9949;DHT22;5013;51.840;8.276;2022-08-30T17:28:04;23.70;1.00
9949;DHT22;5013;51.840;8.276;2022-08-30T17:30:30;23.70;1.00
9949;DHT22;5013;51.840;8.276;2022-08-30T17:32:56;23.60;1.00
9949;DHT22;5013;51.840;8.276;2022-08-30T17:35:23;23.60;1.00
9949;DHT22;5013;51.840;8.276;2022-08-30T17:37:49;23.50;1.00
9949;DHT22;5013;51.840;8.276;2022-08-30T17:40:15;23.40;1.00
9949;DHT22;5013;51.840;8.276;2022-08-30T17:42:41;23.30;1.00
9949;DHT22;5013;51.840;8.276;2022-08-30T17:45:10;23.30;1.00
9949;DHT22;5013;51.840;8.276;2022-08-30T17:47:36;23.20;1.00
9949;DHT22;5013;51.840;8.276;2022-08-30T17:50:03;23.10;1.00